sensor_id;sensor_type;location;lat;lon;timestamp;P1;P2;P0
48887;PMS5003;42598;53.802;-1.632;2023-02-14T00:02:20;83;77;
48887;PMS5003;42598;53.802;-1.632;2023-02-14T00:04:47;89;84;
48887;PMS5003;42598;53.802;-1.632;2023-02-14T00:07:14;91;86;
48887;PMS5003;42598;53.802;-1.632;2023-02-14T00:09:46;86;79;
48887;PMS5003;42598;53.802;-1.632;2023-02-14T00:12:13;80;74;
48887;PMS5003;42598;53.802;-1.632;2023-02-14T00:14:40;80;73;
48887;PMS5003;42598;53.802;-1.632;2023-02-14T00:17:07;86;80;
48887;PMS5003;42598;53.802;-1.632;2023-02-14T00:19:34;78;68;
48887;PMS5003;42598;53.802;-1.632;2023-02-14T00:22:01;80;72;
48887;PMS5003;42598;53.802;-1.632;2023-02-14T00:24:30;81;76;
48887;PMS5003;42598;53.802;-1.632;2023-02-14T00:26:57;84;79;
48887;PMS5003;42598;53.802;-1.632;2023-02-14T00:29:26;89;79;
48887;PMS5003;42598;53.802;-1.632;2023-02-14T00:31:56;77;69;
48887;PMS5003;42598;53.802;-1.632;2023-02-14T00:34:24;83;76;
48887;PMS5003;42598;53.802;-1.632;2023-02-14T00:36:50;83;78;
48887;PMS5003;42598;53.802;-1.632;2023-02-14T00:39:18;92;78;
48887;PMS5003;42598;53.802;-1.632;2023-02-14T00:41:45;72;68;
48887;PMS5003;42598;53.802;-1.632;2023-02-14T00:44:12;89;82;
48887;PMS5003;42598;53.802;-1.632;2023-02-14T00:46:39;79;74;
48887;PMS5003;42598;53.802;-1.632;2023-02-14T00:49:07;79;71;
48887;PMS5003;42598;53.802;-1.632;2023-02-14T00:51:35;82;77;
48887;PMS5003;42598;53.802;-1.632;2023-02-14T00:54:02;89;78;
48887;PMS5003;42598;53.802;-1.632;2023-02-14T00:56:30;87;76;
48887;PMS5003;42598;53.802;-1.632;2023-02-14T00:58:57;91;85;
48887;PMS5003;42598;53.802;-1.632;2023-02-14T01:01:25;95;88;
48887;PMS5003;42598;53.802;-1.632;2023-02-14T01:03:53;96;82;
48887;PMS5003;42598;53.802;-1.632;2023-02-14T01:06:20;77;73;
48887;PMS5003;42598;53.802;-1.632;2023-02-14T01:08:47;78;74;
48887;PMS5003;42598;53.802;-1.632;2023-02-14T01:11:15;85;76;
48887;PMS5003;42598;53.802;-1.632;2023-02-14T01:13:45;81;68;
48887;PMS5003;42598;53.802;-1.632;2023-02-14T01:16:15;85;76;
48887;PMS5003;42598;53.802;-1.632;2023-02-14T01:18:43;92;82;
48887;PMS5003;42598;53.802;-1.632;2023-02-14T01:21:12;107;91;
48887;PMS5003;42598;53.802;-1.632;2023-02-14T01:23:42;93;83;
48887;PMS5003;42598;53.802;-1.632;2023-02-14T01:26:10;84;77;
48887;PMS5003;42598;53.802;-1.632;2023-02-14T01:28:38;85;78;
48887;PMS5003;42598;53.802;-1.632;2023-02-14T01:31:08;91;81;
48887;PMS5003;42598;53.802;-1.632;2023-02-14T01:33:38;91;78;
48887;PMS5003;42598;53.802;-1.632;2023-02-14T01:36:13;88;78;
48887;PMS5003;42598;53.802;-1.632;2023-02-14T01:38:41;87;81;
48887;PMS5003;42598;53.802;-1.632;2023-02-14T01:41:08;97;86;
48887;PMS5003;42598;53.802;-1.632;2023-02-14T01:43:48;94;83;
48887;PMS5003;42598;53.802;-1.632;2023-02-14T01:46:17;96;85;
48887;PMS5003;42598;53.802;-1.632;2023-02-14T01:48:44;89;81;
48887;PMS5003;42598;53.802;-1.632;2023-02-14T01:51:11;94;82;
48887;PMS5003;42598;53.802;-1.632;2023-02-14T01:53:40;94;83;
48887;PMS5003;42598;53.802;-1.632;2023-02-14T01:56:08;100;88;
48887;PMS5003;42598;53.802;-1.632;2023-02-14T01:58:40;95;88;
48887;PMS5003;42598;53.802;-1.632;2023-02-14T02:01:12;96;89;
48887;PMS5003;42598;53.802;-1.632;2023-02-14T02:03:41;89;85;
48887;PMS5003;42598;53.802;-1.632;2023-02-14T02:06:14;93;80;
48887;PMS5003;42598;53.802;-1.632;2023-02-14T02:08:47;89;79;
48887;PMS5003;42598;53.802;-1.632;2023-02-14T02:11:21;89;83;
48887;PMS5003;42598;53.802;-1.632;2023-02-14T02:13:48;98;90;
48887;PMS5003;42598;53.802;-1.632;2023-02-14T02:16:20;85;75;
48887;PMS5003;42598;53.802;-1.632;2023-02-14T02:19:05;97;84;
48887;PMS5003;42598;53.802;-1.632;2023-02-14T02:21:57;84;74;
48887;PMS5003;42598;53.802;-1.632;2023-02-14T02:24:46;86;78;
48887;PMS5003;42598;53.802;-1.632;2023-02-14T02:27:22;86;80;
48887;PMS5003;42598;53.802;-1.632;2023-02-14T02:32:17;92;77;
48887;PMS5003;42598;53.802;-1.632;2023-02-14T02:35:01;90;84;
48887;PMS5003;42598;53.802;-1.632;2023-02-14T02:37:42;85;80;
48887;PMS5003;42598;53.802;-1.632;2023-02-14T02:40:23;97;82;
48887;PMS5003;42598;53.802;-1.632;2023-02-14T02:43:03;88;78;
48887;PMS5003;42598;53.802;-1.632;2023-02-14T02:45:40;95;77;
48887;PMS5003;42598;53.802;-1.632;2023-02-14T02:48:14;97;83;
48887;PMS5003;42598;53.802;-1.632;2023-02-14T02:50:46;85;76;
48887;PMS5003;42598;53.802;-1.632;2023-02-14T02:53:20;97;87;
48887;PMS5003;42598;53.802;-1.632;2023-02-14T02:55:54;86;78;
48887;PMS5003;42598;53.802;-1.632;2023-02-14T02:58:29;97;86;
48887;PMS5003;42598;53.802;-1.632;2023-02-14T03:00:58;88;78;
48887;PMS5003;42598;53.802;-1.632;2023-02-14T03:03:32;86;80;
48887;PMS5003;42598;53.802;-1.632;2023-02-14T03:06:02;91;83;
48887;PMS5003;42598;53.802;-1.632;2023-02-14T03:08:30;94;88;
48887;PMS5003;42598;53.802;-1.632;2023-02-14T03:10:57;78;75;
48887;PMS5003;42598;53.802;-1.632;2023-02-14T03:13:30;99;86;
48887;PMS5003;42598;53.802;-1.632;2023-02-14T03:16:18;100;84;
48887;PMS5003;42598;53.802;-1.632;2023-02-14T03:19:03;89;75;
48887;PMS5003;42598;53.802;-1.632;2023-02-14T03:21:43;91;83;
48887;PMS5003;42598;53.802;-1.632;2023-02-14T03:24:18;85;78;
48887;PMS5003;42598;53.802;-1.632;2023-02-14T03:26:55;92;83;
48887;PMS5003;42598;53.802;-1.632;2023-02-14T03:29:30;81;76;
48887;PMS5003;42598;53.802;-1.632;2023-02-14T03:32:09;86;79;
48887;PMS5003;42598;53.802;-1.632;2023-02-14T03:34:43;84;77;
48887;PMS5003;42598;53.802;-1.632;2023-02-14T03:37:14;95;81;
48887;PMS5003;42598;53.802;-1.632;2023-02-14T03:39:49;101;87;
48887;PMS5003;42598;53.802;-1.632;2023-02-14T03:42:21;106;90;
48887;PMS5003;42598;53.802;-1.632;2023-02-14T03:44:53;105;94;
48887;PMS5003;42598;53.802;-1.632;2023-02-14T03:47:23;97;86;
48887;PMS5003;42598;53.802;-1.632;2023-02-14T03:49:55;102;93;
48887;PMS5003;42598;53.802;-1.632;2023-02-14T03:52:26;104;91;
48887;PMS5003;42598;53.802;-1.632;2023-02-14T03:54:59;103;91;
48887;PMS5003;42598;53.802;-1.632;2023-02-14T03:57:30;105;96;
48887;PMS5003;42598;53.802;-1.632;2023-02-14T04:00:04;102;90;
48887;PMS5003;42598;53.802;-1.632;2023-02-14T04:02:33;105;99;
48887;PMS5003;42598;53.802;-1.632;2023-02-14T04:05:06;103;90;
48887;PMS5003;42598;53.802;-1.632;2023-02-14T04:07:47;103;92;
48887;PMS5003;42598;53.802;-1.632;2023-02-14T04:10:16;98;90;
48887;PMS5003;42598;53.802;-1.632;2023-02-14T04:12:45;120;98;
48887;PMS5003;42598;53.802;-1.632;2023-02-14T04:15:13;112;97;
48887;PMS5003;42598;53.802;-1.632;2023-02-14T04:17:40;109;96;
48887;PMS5003;42598;53.802;-1.632;2023-02-14T04:20:08;103;93;
48887;PMS5003;42598;53.802;-1.632;2023-02-14T04:22:35;107;93;
48887;PMS5003;42598;53.802;-1.632;2023-02-14T04:25:02;110;95;
48887;PMS5003;42598;53.802;-1.632;2023-02-14T04:27:30;112;98;
48887;PMS5003;42598;53.802;-1.632;2023-02-14T04:29:57;115;97;
48887;PMS5003;42598;53.802;-1.632;2023-02-14T04:32:24;116;104;
48887;PMS5003;42598;53.802;-1.632;2023-02-14T04:34:51;119;100;
48887;PMS5003;42598;53.802;-1.632;2023-02-14T04:37:18;103;95;
48887;PMS5003;42598;53.802;-1.632;2023-02-14T04:39:45;126;108;
48887;PMS5003;42598;53.802;-1.632;2023-02-14T04:42:13;113;92;
48887;PMS5003;42598;53.802;-1.632;2023-02-14T04:44:40;115;99;
48887;PMS5003;42598;53.802;-1.632;2023-02-14T04:47:06;108;97;
48887;PMS5003;42598;53.802;-1.632;2023-02-14T04:49:34;116;101;
48887;PMS5003;42598;53.802;-1.632;2023-02-14T04:52:02;120;108;
48887;PMS5003;42598;53.802;-1.632;2023-02-14T04:54:30;119;107;
48887;PMS5003;42598;53.802;-1.632;2023-02-14T04:56:57;115;104;
48887;PMS5003;42598;53.802;-1.632;2023-02-14T04:59:24;113;107;
48887;PMS5003;42598;53.802;-1.632;2023-02-14T05:01:51;112;97;
48887;PMS5003;42598;53.802;-1.632;2023-02-14T05:04:19;126;110;
48887;PMS5003;42598;53.802;-1.632;2023-02-14T05:06:47;119;99;
48887;PMS5003;42598;53.802;-1.632;2023-02-14T05:09:14;115;98;
48887;PMS5003;42598;53.802;-1.632;2023-02-14T05:11:41;104;93;
48887;PMS5003;42598;53.802;-1.632;2023-02-14T05:14:08;113;98;
48887;PMS5003;42598;53.802;-1.632;2023-02-14T05:16:36;98;90;
48887;PMS5003;42598;53.802;-1.632;2023-02-14T05:19:03;102;90;
48887;PMS5003;42598;53.802;-1.632;2023-02-14T05:21:30;103;91;
48887;PMS5003;42598;53.802;-1.632;2023-02-14T05:23:57;102;94;
48887;PMS5003;42598;53.802;-1.632;2023-02-14T05:26:25;105;96;
48887;PMS5003;42598;53.802;-1.632;2023-02-14T05:28:52;91;86;
48887;PMS5003;42598;53.802;-1.632;2023-02-14T05:31:19;97;89;
48887;PMS5003;42598;53.802;-1.632;2023-02-14T05:33:46;99;87;
48887;PMS5003;42598;53.802;-1.632;2023-02-14T05:36:13;96;91;
48887;PMS5003;42598;53.802;-1.632;2023-02-14T05:38:40;98;86;
48887;PMS5003;42598;53.802;-1.632;2023-02-14T05:41:07;102;90;
48887;PMS5003;42598;53.802;-1.632;2023-02-14T05:43:34;107;91;
48887;PMS5003;42598;53.802;-1.632;2023-02-14T05:46:02;100;88;
48887;PMS5003;42598;53.802;-1.632;2023-02-14T05:48:28;101;95;
48887;PMS5003;42598;53.802;-1.632;2023-02-14T05:50:55;92;80;
48887;PMS5003;42598;53.802;-1.632;2023-02-14T05:53:22;96;87;
48887;PMS5003;42598;53.802;-1.632;2023-02-14T05:55:49;87;77;
48887;PMS5003;42598;53.802;-1.632;2023-02-14T05:58:16;94;89;
48887;PMS5003;42598;53.802;-1.632;2023-02-14T06:00:43;102;85;
48887;PMS5003;42598;53.802;-1.632;2023-02-14T06:03:10;91;82;
48887;PMS5003;42598;53.802;-1.632;2023-02-14T06:05:37;100;93;
48887;PMS5003;42598;53.802;-1.632;2023-02-14T06:08:04;90;85;
48887;PMS5003;42598;53.802;-1.632;2023-02-14T06:10:31;89;83;
48887;PMS5003;42598;53.802;-1.632;2023-02-14T06:12:59;101;84;
48887;PMS5003;42598;53.802;-1.632;2023-02-14T06:15:26;95;90;
48887;PMS5003;42598;53.802;-1.632;2023-02-14T06:17:54;100;87;
48887;PMS5003;42598;53.802;-1.632;2023-02-14T06:20:22;102;86;
48887;PMS5003;42598;53.802;-1.632;2023-02-14T06:22:50;103;94;
48887;PMS5003;42598;53.802;-1.632;2023-02-14T06:25:17;99;87;
48887;PMS5003;42598;53.802;-1.632;2023-02-14T06:27:45;94;86;
48887;PMS5003;42598;53.802;-1.632;2023-02-14T06:30:13;92;84;
48887;PMS5003;42598;53.802;-1.632;2023-02-14T06:32:41;98;85;
48887;PMS5003;42598;53.802;-1.632;2023-02-14T06:35:07;92;88;
48887;PMS5003;42598;53.802;-1.632;2023-02-14T06:37:35;91;83;
48887;PMS5003;42598;53.802;-1.632;2023-02-14T06:40:02;92;84;
48887;PMS5003;42598;53.802;-1.632;2023-02-14T06:42:29;91;81;
48887;PMS5003;42598;53.802;-1.632;2023-02-14T06:44:56;84;80;
48887;PMS5003;42598;53.802;-1.632;2023-02-14T06:47:23;100;87;
48887;PMS5003;42598;53.802;-1.632;2023-02-14T06:49:50;91;82;
48887;PMS5003;42598;53.802;-1.632;2023-02-14T06:52:17;95;85;
48887;PMS5003;42598;53.802;-1.632;2023-02-14T06:54:45;96;88;
48887;PMS5003;42598;53.802;-1.632;2023-02-14T06:57:12;101;89;
48887;PMS5003;42598;53.802;-1.632;2023-02-14T06:59:39;95;82;
48887;PMS5003;42598;53.802;-1.632;2023-02-14T07:02:08;108;91;
48887;PMS5003;42598;53.802;-1.632;2023-02-14T07:04:35;96;82;
48887;PMS5003;42598;53.802;-1.632;2023-02-14T07:07:03;95;84;
48887;PMS5003;42598;53.802;-1.632;2023-02-14T07:09:30;91;85;
48887;PMS5003;42598;53.802;-1.632;2023-02-14T07:11:57;91;85;
48887;PMS5003;42598;53.802;-1.632;2023-02-14T07:14:24;101;87;
48887;PMS5003;42598;53.802;-1.632;2023-02-14T07:16:51;91;83;
48887;PMS5003;42598;53.802;-1.632;2023-02-14T07:19:19;91;86;
48887;PMS5003;42598;53.802;-1.632;2023-02-14T07:21:45;95;88;
48887;PMS5003;42598;53.802;-1.632;2023-02-14T07:24:13;101;88;
48887;PMS5003;42598;53.802;-1.632;2023-02-14T07:26:40;102;86;
48887;PMS5003;42598;53.802;-1.632;2023-02-14T07:29:07;92;86;
48887;PMS5003;42598;53.802;-1.632;2023-02-14T07:31:35;93;78;
48887;PMS5003;42598;53.802;-1.632;2023-02-14T07:34:02;89;85;
48887;PMS5003;42598;53.802;-1.632;2023-02-14T07:36:29;97;88;
48887;PMS5003;42598;53.802;-1.632;2023-02-14T07:38:56;99;86;
48887;PMS5003;42598;53.802;-1.632;2023-02-14T07:41:24;92;86;
48887;PMS5003;42598;53.802;-1.632;2023-02-14T07:43:51;84;78;
48887;PMS5003;42598;53.802;-1.632;2023-02-14T07:46:18;75;73;
48887;PMS5003;42598;53.802;-1.632;2023-02-14T07:48:45;89;78;
48887;PMS5003;42598;53.802;-1.632;2023-02-14T07:51:12;92;88;
48887;PMS5003;42598;53.802;-1.632;2023-02-14T07:53:40;81;72;
48887;PMS5003;42598;53.802;-1.632;2023-02-14T07:56:07;86;81;
48887;PMS5003;42598;53.802;-1.632;2023-02-14T07:58:34;73;66;
48887;PMS5003;42598;53.802;-1.632;2023-02-14T08:01:02;98;87;
48887;PMS5003;42598;53.802;-1.632;2023-02-14T08:03:29;86;80;
48887;PMS5003;42598;53.802;-1.632;2023-02-14T08:05:56;81;75;
48887;PMS5003;42598;53.802;-1.632;2023-02-14T08:08:24;77;69;
48887;PMS5003;42598;53.802;-1.632;2023-02-14T08:10:53;83;72;
48887;PMS5003;42598;53.802;-1.632;2023-02-14T08:13:20;88;77;
48887;PMS5003;42598;53.802;-1.632;2023-02-14T08:15:47;91;71;
48887;PMS5003;42598;53.802;-1.632;2023-02-14T08:18:14;94;80;
48887;PMS5003;42598;53.802;-1.632;2023-02-14T08:20:41;81;78;
48887;PMS5003;42598;53.802;-1.632;2023-02-14T08:23:09;87;82;
48887;PMS5003;42598;53.802;-1.632;2023-02-14T08:25:37;89;80;
48887;PMS5003;42598;53.802;-1.632;2023-02-14T08:28:04;84;72;
48887;PMS5003;42598;53.802;-1.632;2023-02-14T08:30:32;91;82;
48887;PMS5003;42598;53.802;-1.632;2023-02-14T08:33:02;95;82;
48887;PMS5003;42598;53.802;-1.632;2023-02-14T08:35:30;93;78;
48887;PMS5003;42598;53.802;-1.632;2023-02-14T08:37:57;87;77;
48887;PMS5003;42598;53.802;-1.632;2023-02-14T08:40:24;78;75;
48887;PMS5003;42598;53.802;-1.632;2023-02-14T08:42:51;81;74;
48887;PMS5003;42598;53.802;-1.632;2023-02-14T08:45:18;78;70;
48887;PMS5003;42598;53.802;-1.632;2023-02-14T08:47:51;87;77;
48887;PMS5003;42598;53.802;-1.632;2023-02-14T08:50:18;94;84;
48887;PMS5003;42598;53.802;-1.632;2023-02-14T08:52:46;75;71;
48887;PMS5003;42598;53.802;-1.632;2023-02-14T08:55:13;88;75;
48887;PMS5003;42598;53.802;-1.632;2023-02-14T08:57:40;77;72;
48887;PMS5003;42598;53.802;-1.632;2023-02-14T09:00:08;92;75;
48887;PMS5003;42598;53.802;-1.632;2023-02-14T09:02:41;91;76;
48887;PMS5003;42598;53.802;-1.632;2023-02-14T09:05:08;99;89;
48887;PMS5003;42598;53.802;-1.632;2023-02-14T09:07:35;93;81;
48887;PMS5003;42598;53.802;-1.632;2023-02-14T09:10:03;93;83;
48887;PMS5003;42598;53.802;-1.632;2023-02-14T09:12:31;89;80;
48887;PMS5003;42598;53.802;-1.632;2023-02-14T09:14:58;99;92;
48887;PMS5003;42598;53.802;-1.632;2023-02-14T09:17:26;97;86;
48887;PMS5003;42598;53.802;-1.632;2023-02-14T09:19:52;100;92;
48887;PMS5003;42598;53.802;-1.632;2023-02-14T09:22:19;102;91;
48887;PMS5003;42598;53.802;-1.632;2023-02-14T09:24:47;103;94;
48887;PMS5003;42598;53.802;-1.632;2023-02-14T09:27:14;92;85;
48887;PMS5003;42598;53.802;-1.632;2023-02-14T09:29:41;104;93;
48887;PMS5003;42598;53.802;-1.632;2023-02-14T09:32:08;84;76;
48887;PMS5003;42598;53.802;-1.632;2023-02-14T09:34:35;91;85;
48887;PMS5003;42598;53.802;-1.632;2023-02-14T09:37:03;99;85;
48887;PMS5003;42598;53.802;-1.632;2023-02-14T09:39:30;96;89;
48887;PMS5003;42598;53.802;-1.632;2023-02-14T09:42:01;104;88;
48887;PMS5003;42598;53.802;-1.632;2023-02-14T09:44:40;93;86;
48887;PMS5003;42598;53.802;-1.632;2023-02-14T09:47:15;89;80;
48887;PMS5003;42598;53.802;-1.632;2023-02-14T09:49:47;94;88;
48887;PMS5003;42598;53.802;-1.632;2023-02-14T09:52:18;97;88;
48887;PMS5003;42598;53.802;-1.632;2023-02-14T09:54:50;100;88;
48887;PMS5003;42598;53.802;-1.632;2023-02-14T09:57:23;91;83;
48887;PMS5003;42598;53.802;-1.632;2023-02-14T10:00:00;96;93;
48887;PMS5003;42598;53.802;-1.632;2023-02-14T10:02:40;101;96;
48887;PMS5003;42598;53.802;-1.632;2023-02-14T10:05:16;121;111;
48887;PMS5003;42598;53.802;-1.632;2023-02-14T10:07:52;121;116;
48887;PMS5003;42598;53.802;-1.632;2023-02-14T10:10:25;113;108;
48887;PMS5003;42598;53.802;-1.632;2023-02-14T10:12:59;108;100;
48887;PMS5003;42598;53.802;-1.632;2023-02-14T10:15:35;105;98;
48887;PMS5003;42598;53.802;-1.632;2023-02-14T10:18:08;111;104;
48887;PMS5003;42598;53.802;-1.632;2023-02-14T10:20:41;111;94;
48887;PMS5003;42598;53.802;-1.632;2023-02-14T10:23:19;106;98;
48887;PMS5003;42598;53.802;-1.632;2023-02-14T10:25:54;106;96;
48887;PMS5003;42598;53.802;-1.632;2023-02-14T10:28:28;97;89;
48887;PMS5003;42598;53.802;-1.632;2023-02-14T10:31:01;104;95;
48887;PMS5003;42598;53.802;-1.632;2023-02-14T10:33:41;105;96;
48887;PMS5003;42598;53.802;-1.632;2023-02-14T10:36:14;98;93;
48887;PMS5003;42598;53.802;-1.632;2023-02-14T10:38:51;97;93;
48887;PMS5003;42598;53.802;-1.632;2023-02-14T10:41:28;105;96;
48887;PMS5003;42598;53.802;-1.632;2023-02-14T10:44:03;103;95;
48887;PMS5003;42598;53.802;-1.632;2023-02-14T10:46:41;116;105;
48887;PMS5003;42598;53.802;-1.632;2023-02-14T10:49:21;109;102;
48887;PMS5003;42598;53.802;-1.632;2023-02-14T10:52:00;112;104;
48887;PMS5003;42598;53.802;-1.632;2023-02-14T10:54:35;107;91;
48887;PMS5003;42598;53.802;-1.632;2023-02-14T10:57:06;103;93;
48887;PMS5003;42598;53.802;-1.632;2023-02-14T10:59:43;99;87;
48887;PMS5003;42598;53.802;-1.632;2023-02-14T11:02:17;95;87;
48887;PMS5003;42598;53.802;-1.632;2023-02-14T11:04:49;97;88;
48887;PMS5003;42598;53.802;-1.632;2023-02-14T11:07:17;103;95;
48887;PMS5003;42598;53.802;-1.632;2023-02-14T11:09:46;113;98;
48887;PMS5003;42598;53.802;-1.632;2023-02-14T11:12:30;112;98;
48887;PMS5003;42598;53.802;-1.632;2023-02-14T11:15:07;118;107;
48887;PMS5003;42598;53.802;-1.632;2023-02-14T11:17:37;106;98;
48887;PMS5003;42598;53.802;-1.632;2023-02-14T11:20:20;102;92;
48887;PMS5003;42598;53.802;-1.632;2023-02-14T11:22:49;103;92;
48887;PMS5003;42598;53.802;-1.632;2023-02-14T11:25:18;97;90;
48887;PMS5003;42598;53.802;-1.632;2023-02-14T11:27:47;99;91;
48887;PMS5003;42598;53.802;-1.632;2023-02-14T11:30:26;92;87;
48887;PMS5003;42598;53.802;-1.632;2023-02-14T11:32:56;93;87;
48887;PMS5003;42598;53.802;-1.632;2023-02-14T11:35:24;92;85;
48887;PMS5003;42598;53.802;-1.632;2023-02-14T11:37:54;87;85;
48887;PMS5003;42598;53.802;-1.632;2023-02-14T11:40:25;102;97;
48887;PMS5003;42598;53.802;-1.632;2023-02-14T11:42:54;98;91;
48887;PMS5003;42598;53.802;-1.632;2023-02-14T11:45:26;93;84;
48887;PMS5003;42598;53.802;-1.632;2023-02-14T11:48:05;87;80;
48887;PMS5003;42598;53.802;-1.632;2023-02-14T11:50:35;87;80;
48887;PMS5003;42598;53.802;-1.632;2023-02-14T11:53:03;81;78;
48887;PMS5003;42598;53.802;-1.632;2023-02-14T11:55:35;81;77;
48887;PMS5003;42598;53.802;-1.632;2023-02-14T11:58:03;77;72;
48887;PMS5003;42598;53.802;-1.632;2023-02-14T12:00:33;74;73;
48887;PMS5003;42598;53.802;-1.632;2023-02-14T12:03:00;72;71;
48887;PMS5003;42598;53.802;-1.632;2023-02-14T12:05:31;79;73;
48887;PMS5003;42598;53.802;-1.632;2023-02-14T12:08:02;74;70;
48887;PMS5003;42598;53.802;-1.632;2023-02-14T12:10:31;76;73;
48887;PMS5003;42598;53.802;-1.632;2023-02-14T12:13:00;80;75;
48887;PMS5003;42598;53.802;-1.632;2023-02-14T12:15:31;76;69;
48887;PMS5003;42598;53.802;-1.632;2023-02-14T12:18:05;73;69;
48887;PMS5003;42598;53.802;-1.632;2023-02-14T12:20:50;79;75;
48887;PMS5003;42598;53.802;-1.632;2023-02-14T12:23:23;80;77;
48887;PMS5003;42598;53.802;-1.632;2023-02-14T12:25:57;84;78;
48887;PMS5003;42598;53.802;-1.632;2023-02-14T12:28:33;80;75;
48887;PMS5003;42598;53.802;-1.632;2023-02-14T12:31:07;83;82;
48887;PMS5003;42598;53.802;-1.632;2023-02-14T12:33:36;88;80;
48887;PMS5003;42598;53.802;-1.632;2023-02-14T12:36:05;76;70;
48887;PMS5003;42598;53.802;-1.632;2023-02-14T12:38:40;81;79;
48887;PMS5003;42598;53.802;-1.632;2023-02-14T12:41:18;68;65;
48887;PMS5003;42598;53.802;-1.632;2023-02-14T12:43:56;77;71;
48887;PMS5003;42598;53.802;-1.632;2023-02-14T12:46:45;78;72;
48887;PMS5003;42598;53.802;-1.632;2023-02-14T12:49:29;74;71;
48887;PMS5003;42598;53.802;-1.632;2023-02-14T12:52:12;65;62;
48887;PMS5003;42598;53.802;-1.632;2023-02-14T12:54:57;75;70;
48887;PMS5003;42598;53.802;-1.632;2023-02-14T12:57:35;69;59;
48887;PMS5003;42598;53.802;-1.632;2023-02-14T13:00:14;70;65;
48887;PMS5003;42598;53.802;-1.632;2023-02-14T13:02:59;82;76;
48887;PMS5003;42598;53.802;-1.632;2023-02-14T13:05:44;71;67;
48887;PMS5003;42598;53.802;-1.632;2023-02-14T13:08:22;76;68;
48887;PMS5003;42598;53.802;-1.632;2023-02-14T13:11:04;72;64;
48887;PMS5003;42598;53.802;-1.632;2023-02-14T13:13:40;78;72;
48887;PMS5003;42598;53.802;-1.632;2023-02-14T13:16:20;83;77;
48887;PMS5003;42598;53.802;-1.632;2023-02-14T13:18:55;78;73;
48887;PMS5003;42598;53.802;-1.632;2023-02-14T13:21:27;81;76;
48887;PMS5003;42598;53.802;-1.632;2023-02-14T13:24:01;73;67;
48887;PMS5003;42598;53.802;-1.632;2023-02-14T13:26:40;75;71;
48887;PMS5003;42598;53.802;-1.632;2023-02-14T13:29:12;77;75;
48887;PMS5003;42598;53.802;-1.632;2023-02-14T13:31:43;80;73;
48887;PMS5003;42598;53.802;-1.632;2023-02-14T13:34:15;86;79;
48887;PMS5003;42598;53.802;-1.632;2023-02-14T13:36:51;86;80;
48887;PMS5003;42598;53.802;-1.632;2023-02-14T13:39:24;77;73;
48887;PMS5003;42598;53.802;-1.632;2023-02-14T13:41:55;86;78;
48887;PMS5003;42598;53.802;-1.632;2023-02-14T13:44:55;78;77;
48887;PMS5003;42598;53.802;-1.632;2023-02-14T13:47:22;87;82;
48887;PMS5003;42598;53.802;-1.632;2023-02-14T13:49:53;90;87;
48887;PMS5003;42598;53.802;-1.632;2023-02-14T13:52:38;87;84;
48887;PMS5003;42598;53.802;-1.632;2023-02-14T13:55:07;74;70;
48887;PMS5003;42598;53.802;-1.632;2023-02-14T13:57:40;75;71;
48887;PMS5003;42598;53.802;-1.632;2023-02-14T14:00:34;85;76;
48887;PMS5003;42598;53.802;-1.632;2023-02-14T14:03:06;82;80;
48887;PMS5003;42598;53.802;-1.632;2023-02-14T14:06:10;95;86;
48887;PMS5003;42598;53.802;-1.632;2023-02-14T14:08:40;93;85;
48887;PMS5003;42598;53.802;-1.632;2023-02-14T14:11:11;92;88;
48887;PMS5003;42598;53.802;-1.632;2023-02-14T14:12:35;93;89;
48887;PMS5003;42598;53.802;-1.632;2023-02-14T14:15:20;95;90;
48887;PMS5003;42598;53.802;-1.632;2023-02-14T14:17:48;82;80;
48887;PMS5003;42598;53.802;-1.632;2023-02-14T14:21:02;87;81;
48887;PMS5003;42598;53.802;-1.632;2023-02-14T14:23:41;97;92;
48887;PMS5003;42598;53.802;-1.632;2023-02-14T14:26:42;94;89;
48887;PMS5003;42598;53.802;-1.632;2023-02-14T14:29:13;91;83;
48887;PMS5003;42598;53.802;-1.632;2023-02-14T14:31:45;91;82;
48887;PMS5003;42598;53.802;-1.632;2023-02-14T14:34:15;89;87;
48887;PMS5003;42598;53.802;-1.632;2023-02-14T14:36:44;98;92;
48887;PMS5003;42598;53.802;-1.632;2023-02-14T14:39:26;96;91;
48887;PMS5003;42598;53.802;-1.632;2023-02-14T14:41:55;96;87;
48887;PMS5003;42598;53.802;-1.632;2023-02-14T14:44:22;90;84;
48887;PMS5003;42598;53.802;-1.632;2023-02-14T14:46:50;94;88;
48887;PMS5003;42598;53.802;-1.632;2023-02-14T14:49:18;95;87;
48887;PMS5003;42598;53.802;-1.632;2023-02-14T14:51:45;89;86;
48887;PMS5003;42598;53.802;-1.632;2023-02-14T14:54:15;96;88;
48887;PMS5003;42598;53.802;-1.632;2023-02-14T14:56:47;90;87;
48887;PMS5003;42598;53.802;-1.632;2023-02-14T14:59:18;99;92;
48887;PMS5003;42598;53.802;-1.632;2023-02-14T15:01:53;89;84;
48887;PMS5003;42598;53.802;-1.632;2023-02-14T15:04:24;96;88;
48887;PMS5003;42598;53.802;-1.632;2023-02-14T15:06:53;98;95;
48887;PMS5003;42598;53.802;-1.632;2023-02-14T15:09:22;103;91;
48887;PMS5003;42598;53.802;-1.632;2023-02-14T15:11:57;99;94;
48887;PMS5003;42598;53.802;-1.632;2023-02-14T15:14:26;111;97;
48887;PMS5003;42598;53.802;-1.632;2023-02-14T15:16:56;98;94;
48887;PMS5003;42598;53.802;-1.632;2023-02-14T15:19:26;111;101;
48887;PMS5003;42598;53.802;-1.632;2023-02-14T15:21:56;110;97;
48887;PMS5003;42598;53.802;-1.632;2023-02-14T15:24:24;109;102;
48887;PMS5003;42598;53.802;-1.632;2023-02-14T15:26:51;102;92;
48887;PMS5003;42598;53.802;-1.632;2023-02-14T15:29:20;107;100;
48887;PMS5003;42598;53.802;-1.632;2023-02-14T15:31:48;107;101;
48887;PMS5003;42598;53.802;-1.632;2023-02-14T15:34:17;112;101;
48887;PMS5003;42598;53.802;-1.632;2023-02-14T15:36:47;109;100;
48887;PMS5003;42598;53.802;-1.632;2023-02-14T15:39:16;109;97;
48887;PMS5003;42598;53.802;-1.632;2023-02-14T15:41:44;109;103;
48887;PMS5003;42598;53.802;-1.632;2023-02-14T15:44:17;115;107;
48887;PMS5003;42598;53.802;-1.632;2023-02-14T15:46:45;110;102;
48887;PMS5003;42598;53.802;-1.632;2023-02-14T15:49:15;127;112;
48887;PMS5003;42598;53.802;-1.632;2023-02-14T15:51:46;116;105;
48887;PMS5003;42598;53.802;-1.632;2023-02-14T15:54:18;111;97;
48887;PMS5003;42598;53.802;-1.632;2023-02-14T15:56:49;116;104;
48887;PMS5003;42598;53.802;-1.632;2023-02-14T15:59:19;110;103;
48887;PMS5003;42598;53.802;-1.632;2023-02-14T16:01:50;114;106;
48887;PMS5003;42598;53.802;-1.632;2023-02-14T16:04:22;106;100;
48887;PMS5003;42598;53.802;-1.632;2023-02-14T16:07:18;109;105;
48887;PMS5003;42598;53.802;-1.632;2023-02-14T16:09:50;112;107;
48887;PMS5003;42598;53.802;-1.632;2023-02-14T16:12:53;112;104;
48887;PMS5003;42598;53.802;-1.632;2023-02-14T16:15:26;119;107;
48887;PMS5003;42598;53.802;-1.632;2023-02-14T16:17:54;126;114;
48887;PMS5003;42598;53.802;-1.632;2023-02-14T16:20:24;125;114;
48887;PMS5003;42598;53.802;-1.632;2023-02-14T16:23:12;122;111;